Crew | Aerofun Virtual



 METAR AND TAF INFORMATION
METAR FOR EFKE
ADDS - METARS form results

(1528 UTC 24 May 2019)
Data provider http://aviationweather.gov/metar/data/
 
METAR text: EFKE 241520Z AUTO 12007KT 090V150 9999 -RA OVC017 06/05 Q1010
Conditions at: EFKE (KEMI , FI) observed 1520 UTC 24 May 2019
Temperature: 6.0°C (43°F)
Dewpoint: 5.0°C (41°F) [RH = 93%]
Pressure (altimeter): 29.82 inches Hg (1010.0 mb)
Winds: from the ESE (120 degrees) at 8 MPH (7 knots; 3.6 m/s)
Visibility: 6 or more miles (10+ km)
Ceiling: 1700 feet AGL
Clouds: overcast cloud deck at 1700 feet AGL
Weather: -RA  (light rain)

METAR text: EFKE 241450Z AUTO 12006KT 7000 -RA OVC009 06/04 Q1010
Conditions at: EFKE (KEMI , FI) observed 1450 UTC 24 May 2019
Temperature: 6.0°C (43°F)
Dewpoint: 4.0°C (39°F) [RH = 87%]
Pressure (altimeter): 29.82 inches Hg (1010.0 mb)
Winds: from the ESE (120 degrees) at 7 MPH (6 knots; 3.1 m/s)
Visibility: 4 miles ( 7 km)
Ceiling: 900 feet AGL
Clouds: overcast cloud deck at 900 feet AGL
Weather: -RA  (light rain)

Forecast for: EFKE (KEMI , FI)
Text: TAF EFKE 241435Z 2415/2424 12008KT 9999 -RA BKN015
Forecast period: 1500 to 1800 UTC 24 May 2019
Forecast type: FROM: standard forecast or significant change
Winds: from the ESE (120 degrees) at 9 MPH (8 knots; 4.1 m/s)
Visibility: 6 or more miles 10+ km)
Ceiling: 1500 feet AGL
Clouds: broken clouds at 1500 feet AGL
Weather: -RA  (light rain)
Text: TEMPO 2415/2418 2500 -DZ BKN005
Forecast period: 1500 to 1800 UTC 24 May 2019
Forecast type: TEMPORARY: The following changes expected for less than half the time period
Visibility: 1.55 miles (2.49 km)
Ceiling: 500 feet AGL
Clouds: broken clouds at 500 feet AGL
Weather: -DZ  (light drizzle)
Text: BECMG 2418/2420 BKN007
Forecast period: 1800 UTC 24 May 2019 to 0000 UTC 25 May 2019
Forecast type: BECOMING: Conditions expected to become as follows by 2000 UTC 24 May 2019
Winds: from the ESE (120 degrees) at 9 MPH (8 knots; 4.1 m/s)
Visibility: 6 or more miles 10+ km)
Ceiling: 700 feet AGL
Clouds: broken clouds at 700 feet AGL
Weather: -RA  (light rain)
Text: TEMPO 2420/2424 2500 -DZ BKN004
Forecast period: 2000 UTC 24 May 2019 to 0000 UTC 25 May 2019
Forecast type: TEMPORARY: The following changes expected for less than half the time period
Visibility: 1.55 miles (2.49 km)
Ceiling: 400 feet AGL
Clouds: broken clouds at 400 feet AGL
Weather: -DZ  (light drizzle)

 AIRPORT MAP

 RUNWAY INFORMATION
Runway 18 Runway length 8212 ft Runway width 157 ft
Runway elevation 48 ft Runway displaced threshold 0 ft Runway heading 188
Runway 36 Runway length 8212 ft Runway width 157 ft
Runway elevation 31 ft Runway displaced threshold 0 ft Runway heading 8

 AIRPORT FREQUENCIES
Type ATIS Name ATIS Frequency 123.15 MHZ
Type TWR Name TWR Frequency 119.4 MHZ

 AIRPORT NEAR NAVIGATION AIDS
Type NDB Name Kemi Frequency 373 KHZ